météowapi.be MeteoWapi, Belgique

50° 38.40' N | 003° 22.32' O | 21 meter | Voir la carte

Historique Wunderground.com

21-fév-2018 15:45

Station:Lacrosse WS1640
Logiciel:weewx v3.8.0
Temps de fonctionnement de Weewx:30 Jours, 17 Heures, 38 Minutes
Temps de fonctionnement du Serveur:72 Jours, 17 Heures, 19 Minutes
   Pas de vigilance météorologique particulière.   -   Il n'y a aucun avertissement

Historique Wunderground.com

Données Historiques de MétéoKain
 
Journalier Rapport pour Février 21, 2018 Unitée:  Métrique    Impériale   Les deux
« Précédent Jour
Suivant Jour »
Journalier Hebdomadaire Mensuel Annuel Sur mesure
  Actuel: Max: Min: Moyenne:
Température: 5.3 °C -17.8 °C -2.1 °C 0.6 °C
Point de rosée: -0.6 °C -17.8 °C -4.4 °C -2.6 °C
Humidité: 66 % Humidity % 66 % 78 %
Vent: 6.4 km/h 0 km/h 1.1 km/h 4.5 km/h
Rafales: 12.1 km/h 0 km/h - -
Vent:NNE - - SE
Pression: 1018.8 hPa 0 hPa 1016.5 hPa -
Pluie: 0 mm      
Historical Graphs
 
 
Données tabulaires pour Février 21, 2018
Heure Température Point de rosée Pression Vent Vent Rafales Humidité Pluie Taux (Horaire)
-17.8 °C -17.8 °C 0 hPa Calm     Humidity % 0 mm
00:00 2.1 °C -1.4 °C 1016.5 hPa NNW 7.7 km/h 10.8 km/h 78 % 0 mm
00:10 2 °C -1.4 °C 1016.8 hPa NE 7.7 km/h 15 km/h 78 % 0 mm
00:20 1.8 °C -1.6 °C 1016.8 hPa NNE 8.5 km/h 8.7 km/h 78 % 0 mm
00:30 1.6 °C -1.8 °C 1017.2 hPa North 6 km/h 8.4 km/h 78 % 0 mm
00:40 1.4 °C -2 °C 1017.2 hPa NE 5.6 km/h 17.4 km/h 78 % 0 mm
00:50 1.3 °C -1.9 °C 1017.5 hPa ENE 7.7 km/h 10.9 km/h 79 % 0 mm
01:00 1.2 °C -2.1 °C 1017.5 hPa NE 6.6 km/h 7.9 km/h 79 % 0 mm
01:10 1 °C -2.2 °C 1017.5 hPa NNE 4.2 km/h 5.6 km/h 79 % 0 mm
01:20 0.7 °C -2.5 °C 1017.5 hPa North 2.3 km/h 4.5 km/h 79 % 0 mm
01:25 0.6 °C -2.6 °C 1017.8 hPa NNE 1.8 km/h 3.5 km/h 79 % 0 mm
01:35 0.4 °C -2.8 °C 1017.8 hPa ENE 1.1 km/h 2.1 km/h 79 % 0 mm
01:45 0 °C -3.2 °C 1017.8 hPa NNE 1.9 km/h 4.2 km/h 79 % 0 mm
01:55 -0.1 °C -3.3 °C 1017.8 hPa NE 2.4 km/h 5.6 km/h 79 % 0 mm
02:05 -0.2 °C -3.4 °C 1017.8 hPa West 2.1 km/h 4 km/h 79 % 0 mm
02:15 -0.2 °C -3.4 °C 1017.8 hPa North 2.3 km/h 7.2 km/h 79 % 0 mm
02:25 -0.3 °C -3.6 °C 1017.8 hPa NNW 1.6 km/h 4.7 km/h 79 % 0 mm
02:35 -0.6 °C -3.7 °C 1017.5 hPa North 1.1 km/h 3.4 km/h 79 % 0 mm
02:45 -0.7 °C -3.7 °C 1018.2 hPa NNW 1.8 km/h 4.5 km/h 80 % 0 mm
02:55 -0.8 °C -3.8 °C 1018.2 hPa NNE 3.5 km/h 5.1 km/h 80 % 0 mm
03:05 -0.9 °C -3.9 °C 1018.2 hPa NW 2.1 km/h 5.6 km/h 80 % 0 mm
03:15 -0.9 °C -3.8 °C 1018.2 hPa NW 2.7 km/h 4.8 km/h 80 % 0 mm
03:25 -0.9 °C -3.8 °C 1018.2 hPa NNE 3.5 km/h 5.6 km/h 81 % 0 mm
03:35 -1 °C -3.8 °C 1018.2 hPa NNE 3.2 km/h 5.6 km/h 81 % 0 mm
03:45 -0.9 °C -3.7 °C 1018.5 hPa NW 3.2 km/h 5.6 km/h 81 % 0 mm
03:50 -0.9 °C -3.7 °C 1018.5 hPa NNE 3.2 km/h 7.6 km/h 81 % 0 mm
04:00 -0.9 °C -3.6 °C 1018.5 hPa NE 3.4 km/h 8.7 km/h 82 % 0 mm
04:10 -0.9 °C -3.6 °C 1018.5 hPa North 3.7 km/h 7.4 km/h 82 % 0 mm
04:20 -1 °C -3.7 °C 1018.5 hPa NE 3.4 km/h 8.7 km/h 82 % 0 mm
04:30 -1 °C -3.7 °C 1018.5 hPa North 3.5 km/h 9.5 km/h 82 % 0 mm
04:40 -1.1 °C -3.8 °C 1018.5 hPa NE 3.4 km/h 6.4 km/h 82 % 0 mm
04:50 -1.1 °C -3.8 °C 1018.5 hPa ENE 2.9 km/h 4.8 km/h 82 % 0 mm
05:00 -1.2 °C -3.9 °C 1018.5 hPa North 3.2 km/h 7.2 km/h 82 % 0 mm
05:10 -1.3 °C -3.9 °C 1018.5 hPa NW 3.1 km/h 4.5 km/h 82 % 0 mm
05:20 -1.4 °C -4.1 °C 1018.5 hPa NW 4.7 km/h 8.2 km/h 82 % 0 mm
05:25 -1.5 °C -4.2 °C 1018.8 hPa North 5.8 km/h 10.1 km/h 82 % 0 mm
05:35 -1.5 °C -4.2 °C 1018.8 hPa North 6.4 km/h 7.2 km/h 82 % 0 mm
05:45 -1.6 °C -4.3 °C 1018.8 hPa North 5.1 km/h 6.9 km/h 82 % 0 mm
05:55 -1.7 °C -4.4 °C 1018.8 hPa NNE 4.3 km/h 5.1 km/h 82 % 0 mm
06:05 -1.8 °C -4.4 °C 1019.2 hPa NNW 4.3 km/h 5.5 km/h 82 % 0 mm
06:15 -1.8 °C -4.4 °C 1019.2 hPa NW 4 km/h 5.3 km/h 82 % 0 mm
06:25 -1.7 °C -4.2 °C 1019.2 hPa ESE 3.5 km/h 9.3 km/h 83 % 0 mm
06:35 -1.7 °C -4.2 °C 1019.2 hPa NNW 4.5 km/h 11.3 km/h 83 % 0 mm
06:45 -1.7 °C -4.2 °C 1019.2 hPa North 4.2 km/h 6.6 km/h 83 % 0 mm
06:55 -1.7 °C -4.2 °C 1019.2 hPa North 3.4 km/h 10.1 km/h 83 % 0 mm
07:05 -1.7 °C -4.2 °C 1019.2 hPa NNE 3.7 km/h 6.6 km/h 83 % 0 mm
07:10 -1.7 °C -4.2 °C 1019.5 hPa ESE 3.7 km/h 4.8 km/h 83 % 0 mm
07:20 -1.8 °C -4.2 °C 1019.5 hPa ESE 3.2 km/h 4.8 km/h 83 % 0 mm
07:30 -1.8 °C -4.2 °C 1019.5 hPa NE 3.1 km/h 3.7 km/h 84 % 0 mm
07:40 -1.9 °C -4.2 °C 1019.5 hPa NW 3.2 km/h 6 km/h 84 % 0 mm
07:50 -2 °C -4.3 °C 1019.5 hPa NNW 3.4 km/h 5.5 km/h 84 % 0 mm
08:00 -2.1 °C -4.4 °C 1019.5 hPa NNE 2.7 km/h 6.4 km/h 84 % 0 mm
08:10 -2 °C -4.3 °C 1019.5 hPa NNW 3.9 km/h 4.5 km/h 84 % 0 mm
08:20 -2 °C -4.3 °C 1019.5 hPa NNW 2.7 km/h 8.9 km/h 84 % 0 mm
08:30 -1.9 °C -4.2 °C 1019.5 hPa SW 3.4 km/h 5.8 km/h 84 % 0 mm
08:40 -1.8 °C -4.1 °C 1019.5 hPa WNW 2.4 km/h 5.1 km/h 84 % 0 mm
08:50 -1.6 °C -3.9 °C 1019.5 hPa WSW 2.1 km/h 5.8 km/h 84 % 0 mm
09:00 -1.3 °C -3.6 °C 1019.5 hPa NW 2.1 km/h 2.7 km/h 85 % 0 mm
09:10 -1.1 °C -3.2 °C 1019.9 hPa NW 1.9 km/h 6 km/h 85 % 0 mm
09:20 -0.8 °C -3 °C 1019.9 hPa NW 3.4 km/h 6 km/h 85 % 0 mm
09:25 -0.7 °C -2.9 °C 1019.9 hPa West 3.7 km/h 7.2 km/h 85 % 0 mm
09:35 -0.4 °C -2.7 °C 1019.9 hPa WNW 4 km/h 8 km/h 85 % 0 mm
09:45 -0.2 °C -2.5 °C 1020.2 hPa North 5.1 km/h 9.3 km/h 84 % 0 mm
09:55 0.1 °C -2.3 °C 1020.2 hPa NNW 5.1 km/h 6.6 km/h 84 % 0 mm
10:05 0.3 °C -2.1 °C 1020.5 hPa NE 4.7 km/h 9.2 km/h 84 % 0 mm
10:15 0.6 °C -1.8 °C 1020.5 hPa NE 4.2 km/h 6 km/h 84 % 0 mm
10:20 0.7 °C -1.7 °C 1020.5 hPa East 4.2 km/h 8.9 km/h 84 % 0 mm
10:30 0.8 °C -1.8 °C 1020.5 hPa NE 5 km/h 8.5 km/h 83 % 0 mm
10:35 0.8 °C -1.8 °C 1020.5 hPa NNE 5.5 km/h 8.5 km/h 83 % 0 mm
10:45 1 °C -1.7 °C 1020.5 hPa East 6 km/h 7.7 km/h 82 % 0 mm
10:55 1.4 °C -1.3 °C 1020.5 hPa NW 5.5 km/h 7.7 km/h 82 % 0 mm
11:05 1.6 °C -1.3 °C 1020.2 hPa NE 6.9 km/h 10.1 km/h 81 % 0 mm
11:10 1.7 °C -1.2 °C 1020.2 hPa NE 6.6 km/h 9 km/h 81 % 0 mm
11:20 2 °C -1.2 °C 1020.2 hPa NE 5.8 km/h 10.5 km/h 79 % 0 mm
11:30 2.5 °C -0.8 °C 1020.2 hPa ENE 4.5 km/h 7.6 km/h 79 % 0 mm
11:40 2.8 °C -0.6 °C 1020.2 hPa NE 5.3 km/h 13.4 km/h 78 % 0 mm
11:50 2.8 °C -0.7 °C 1020.5 hPa NNE 6.9 km/h 10.3 km/h 78 % 0 mm
12:00 3.2 °C -0.4 °C 1020.5 hPa ENE 6.3 km/h 15.4 km/h 77 % 0 mm
12:10 3.2 °C -0.6 °C 1020.5 hPa ENE 7.6 km/h 16.7 km/h 76 % 0 mm
12:20 3.4 °C -0.6 °C 1020.5 hPa NE 6.4 km/h 9.7 km/h 75 % 0 mm
12:30 3.7 °C -0.3 °C 1020.5 hPa NNE 7.4 km/h 12.1 km/h 75 % 0 mm
12:40 3.6 °C -0.8 °C 1020.5 hPa NE 8.2 km/h 9.2 km/h 73 % 0 mm
12:50 3.7 °C -0.7 °C 1020.2 hPa NE 8 km/h 13.2 km/h 73 % 0 mm
13:00 4.1 °C -0.3 °C 1020.2 hPa NE 6 km/h 13.5 km/h 73 % 0 mm
13:05 4.1 °C -0.4 °C 1020.2 hPa NE 5.5 km/h 12.4 km/h 72 % 0 mm
13:15 4.3 °C -0.3 °C 1020.2 hPa North 6.3 km/h 15 km/h 72 % 0 mm
13:25 4.5 °C -0.3 °C 1019.9 hPa North 6.4 km/h 9.8 km/h 71 % 0 mm
13:35 4.3 °C -0.7 °C 1019.9 hPa ENE 7.4 km/h 13.8 km/h 70 % 0 mm
13:45 4.8 °C -0.2 °C 1019.9 hPa NNW 5.8 km/h 12.4 km/h 70 % 0 mm
13:55 4.9 °C -0.3 °C 1019.9 hPa NE 6.8 km/h 12.4 km/h 69 % 0 mm
14:05 4.8 °C -0.4 °C 1019.5 hPa NE 6.3 km/h 13.7 km/h 69 % 0 mm
14:15 5 °C -0.3 °C 1019.5 hPa ENE 6 km/h 8 km/h 69 % 0 mm
14:25 5.2 °C -0.3 °C 1019.5 hPa North 6.4 km/h 15 km/h 68 % 0 mm
14:30 5.3 °C -0.2 °C 1019.5 hPa NNW 6.1 km/h 6.3 km/h 68 % 0 mm
14:40 5.5 °C 0.1 °C 1019.5 hPa NE 5.8 km/h 14.6 km/h 68 % 0 mm
14:50 5.3 °C -0.3 °C 1019.2 hPa NNE 6.6 km/h 10.5 km/h 67 % 0 mm
15:00 5.3 °C -0.3 °C 1019.2 hPa NNE 6.1 km/h 8.9 km/h 67 % 0 mm
15:10 5.3 °C -0.4 °C 1018.8 hPa NE 6.3 km/h 9.7 km/h 67 % 0 mm
15:20 5.3 °C -0.6 °C 1018.8 hPa NW 7.4 km/h 15 km/h 66 % 0 mm
15:30 5.4 °C -0.4 °C 1018.8 hPa NNE 6 km/h 11.3 km/h 66 % 0 mm
15:40 5.3 °C -0.6 °C 1018.8 hPa NNE 6.4 km/h 12.1 km/h 66 % 0 mm
Données Historique de MétéoKain
Courtoisie de Weather Underground - 2 mb

Pub